sensor_id;sensor_type;location;lat;lon;timestamp;temperature;humidity
80779;SHT30;70170;47.856;10.956;2024-01-10T00:01:12;-8.04;99.99
80779;SHT30;70170;47.856;10.956;2024-01-10T00:03:37;-7.98;99.99
80779;SHT30;70170;47.856;10.956;2024-01-10T00:06:03;-7.89;99.99
80779;SHT30;70170;47.856;10.956;2024-01-10T00:08:28;-7.91;99.99
80779;SHT30;70170;47.856;10.956;2024-01-10T00:10:53;-7.95;99.99
80779;SHT30;70170;47.856;10.956;2024-01-10T00:13:20;-7.94;99.99
80779;SHT30;70170;47.856;10.956;2024-01-10T00:15:46;-8.02;99.99
80779;SHT30;70170;47.856;10.956;2024-01-10T00:18:11;-8.00;99.99
80779;SHT30;70170;47.856;10.956;2024-01-10T00:20:36;-8.01;99.99
80779;SHT30;70170;47.856;10.956;2024-01-10T00:23:02;-7.95;99.99
80779;SHT30;70170;47.856;10.956;2024-01-10T00:25:27;-8.00;99.99
80779;SHT30;70170;47.856;10.956;2024-01-10T00:27:52;-8.00;99.99
80779;SHT30;70170;47.856;10.956;2024-01-10T00:30:18;-8.00;99.99
80779;SHT30;70170;47.856;10.956;2024-01-10T00:32:43;-8.02;99.99
80779;SHT30;70170;47.856;10.956;2024-01-10T00:35:08;-7.93;99.99
80779;SHT30;70170;47.856;10.956;2024-01-10T00:37:34;-7.90;99.99
80779;SHT30;70170;47.856;10.956;2024-01-10T00:39:59;-7.93;99.99
80779;SHT30;70170;47.856;10.956;2024-01-10T00:42:24;-7.74;99.99
80779;SHT30;70170;47.856;10.956;2024-01-10T00:44:49;-7.77;99.99
80779;SHT30;70170;47.856;10.956;2024-01-10T00:47:15;-7.76;99.99
80779;SHT30;70170;47.856;10.956;2024-01-10T00:49:40;-7.67;99.99
80779;SHT30;70170;47.856;10.956;2024-01-10T00:52:05;-7.86;99.99
80779;SHT30;70170;47.856;10.956;2024-01-10T00:54:31;-8.07;99.99
80779;SHT30;70170;47.856;10.956;2024-01-10T00:56:56;-8.12;99.99
80779;SHT30;70170;47.856;10.956;2024-01-10T00:59:21;-8.07;99.99
80779;SHT30;70170;47.856;10.956;2024-01-10T01:01:46;-7.98;99.99
80779;SHT30;70170;47.856;10.956;2024-01-10T01:04:12;-8.17;99.99
80779;SHT30;70170;47.856;10.956;2024-01-10T01:06:37;-8.42;99.99
80779;SHT30;70170;47.856;10.956;2024-01-10T01:09:02;-8.49;99.99
80779;SHT30;70170;47.856;10.956;2024-01-10T01:11:28;-8.56;99.99
80779;SHT30;70170;47.856;10.956;2024-01-10T01:13:53;-8.61;99.99
80779;SHT30;70170;47.856;10.956;2024-01-10T01:16:19;-8.61;99.99
80779;SHT30;70170;47.856;10.956;2024-01-10T01:18:44;-8.52;99.99
80779;SHT30;70170;47.856;10.956;2024-01-10T01:21:13;-8.56;99.99
80779;SHT30;70170;47.856;10.956;2024-01-10T01:23:39;-8.64;99.99
80779;SHT30;70170;47.856;10.956;2024-01-10T01:26:04;-8.64;99.99
80779;SHT30;70170;47.856;10.956;2024-01-10T01:28:29;-8.50;99.99
80779;SHT30;70170;47.856;10.956;2024-01-10T01:30:55;-8.28;99.99
80779;SHT30;70170;47.856;10.956;2024-01-10T01:33:20;-8.22;99.99
80779;SHT30;70170;47.856;10.956;2024-01-10T01:35:46;-8.21;99.99
80779;SHT30;70170;47.856;10.956;2024-01-10T01:38:11;-8.05;99.99
80779;SHT30;70170;47.856;10.956;2024-01-10T01:40:36;-7.98;99.99
80779;SHT30;70170;47.856;10.956;2024-01-10T01:43:18;-8.18;99.99
80779;SHT30;70170;47.856;10.956;2024-01-10T01:45:44;-8.14;99.99
80779;SHT30;70170;47.856;10.956;2024-01-10T01:48:10;-7.97;99.99
80779;SHT30;70170;47.856;10.956;2024-01-10T01:50:35;-8.04;99.99
80779;SHT30;70170;47.856;10.956;2024-01-10T01:53:00;-7.94;99.99
80779;SHT30;70170;47.856;10.956;2024-01-10T01:55:25;-8.07;99.99
80779;SHT30;70170;47.856;10.956;2024-01-10T01:57:51;-8.11;99.99
80779;SHT30;70170;47.856;10.956;2024-01-10T02:00:16;-8.11;99.99
80779;SHT30;70170;47.856;10.956;2024-01-10T02:02:43;-8.25;99.99
80779;SHT30;70170;47.856;10.956;2024-01-10T02:05:08;-8.22;99.99
80779;SHT30;70170;47.856;10.956;2024-01-10T02:07:34;-8.25;99.99
80779;SHT30;70170;47.856;10.956;2024-01-10T02:10:00;-8.21;99.99
80779;SHT30;70170;47.856;10.956;2024-01-10T02:12:25;-8.21;99.99
80779;SHT30;70170;47.856;10.956;2024-01-10T02:14:51;-8.19;99.99
80779;SHT30;70170;47.856;10.956;2024-01-10T02:17:17;-8.30;99.99
80779;SHT30;70170;47.856;10.956;2024-01-10T02:19:42;-8.39;99.99
80779;SHT30;70170;47.856;10.956;2024-01-10T02:22:07;-8.42;99.99
80779;SHT30;70170;47.856;10.956;2024-01-10T02:24:33;-8.39;99.99
80779;SHT30;70170;47.856;10.956;2024-01-10T02:26:58;-8.45;99.99
80779;SHT30;70170;47.856;10.956;2024-01-10T02:29:23;-8.46;99.99
80779;SHT30;70170;47.856;10.956;2024-01-10T02:31:49;-8.49;99.99
80779;SHT30;70170;47.856;10.956;2024-01-10T02:34:14;-8.39;99.99
80779;SHT30;70170;47.856;10.956;2024-01-10T02:36:39;-8.42;99.99
80779;SHT30;70170;47.856;10.956;2024-01-10T02:39:05;-8.38;99.99
80779;SHT30;70170;47.856;10.956;2024-01-10T02:41:30;-8.39;99.99
80779;SHT30;70170;47.856;10.956;2024-01-10T02:43:56;-8.32;99.99
80779;SHT30;70170;47.856;10.956;2024-01-10T02:46:24;-8.39;99.99
80779;SHT30;70170;47.856;10.956;2024-01-10T02:48:53;-8.30;99.99
80779;SHT30;70170;47.856;10.956;2024-01-10T02:51:18;-8.29;99.99
80779;SHT30;70170;47.856;10.956;2024-01-10T02:53:43;-8.40;99.99
80779;SHT30;70170;47.856;10.956;2024-01-10T02:56:09;-8.38;99.99
80779;SHT30;70170;47.856;10.956;2024-01-10T02:58:34;-8.40;99.99
80779;SHT30;70170;47.856;10.956;2024-01-10T03:00:59;-8.42;99.99
80779;SHT30;70170;47.856;10.956;2024-01-10T03:03:26;-8.38;99.99
80779;SHT30;70170;47.856;10.956;2024-01-10T03:05:51;-8.39;99.99
80779;SHT30;70170;47.856;10.956;2024-01-10T03:08:16;-8.38;99.99
80779;SHT30;70170;47.856;10.956;2024-01-10T03:10:42;-8.38;99.99
80779;SHT30;70170;47.856;10.956;2024-01-10T03:13:07;-8.38;99.99
80779;SHT30;70170;47.856;10.956;2024-01-10T03:15:32;-8.40;99.99
80779;SHT30;70170;47.856;10.956;2024-01-10T03:17:58;-8.43;99.99
80779;SHT30;70170;47.856;10.956;2024-01-10T03:20:23;-8.42;99.99
80779;SHT30;70170;47.856;10.956;2024-01-10T03:22:48;-8.42;99.99
80779;SHT30;70170;47.856;10.956;2024-01-10T03:25:14;-8.46;99.99
80779;SHT30;70170;47.856;10.956;2024-01-10T03:27:39;-8.50;99.99
80779;SHT30;70170;47.856;10.956;2024-01-10T03:30:05;-8.54;99.99
80779;SHT30;70170;47.856;10.956;2024-01-10T03:32:30;-8.53;99.99
80779;SHT30;70170;47.856;10.956;2024-01-10T03:34:57;-8.52;99.99
80779;SHT30;70170;47.856;10.956;2024-01-10T03:37:22;-8.43;99.99
80779;SHT30;70170;47.856;10.956;2024-01-10T03:39:47;-8.45;99.99
80779;SHT30;70170;47.856;10.956;2024-01-10T03:42:13;-8.45;99.99
80779;SHT30;70170;47.856;10.956;2024-01-10T03:44:38;-8.42;99.99
80779;SHT30;70170;47.856;10.956;2024-01-10T03:47:04;-8.49;99.99
80779;SHT30;70170;47.856;10.956;2024-01-10T03:49:29;-8.47;99.99
80779;SHT30;70170;47.856;10.956;2024-01-10T03:51:54;-8.49;99.99
80779;SHT30;70170;47.856;10.956;2024-01-10T03:54:19;-8.49;99.99
80779;SHT30;70170;47.856;10.956;2024-01-10T03:56:45;-8.46;99.99
80779;SHT30;70170;47.856;10.956;2024-01-10T03:59:10;-8.38;99.99
80779;SHT30;70170;47.856;10.956;2024-01-10T04:01:35;-8.22;99.99
80779;SHT30;70170;47.856;10.956;2024-01-10T04:04:04;-8.02;99.99
80779;SHT30;70170;47.856;10.956;2024-01-10T04:06:30;-7.98;99.99
80779;SHT30;70170;47.856;10.956;2024-01-10T04:08:55;-7.98;99.99
80779;SHT30;70170;47.856;10.956;2024-01-10T04:11:20;-7.94;99.99
80779;SHT30;70170;47.856;10.956;2024-01-10T04:13:46;-7.86;99.99
80779;SHT30;70170;47.856;10.956;2024-01-10T04:16:11;-7.91;99.99
80779;SHT30;70170;47.856;10.956;2024-01-10T04:18:36;-7.87;99.99
80779;SHT30;70170;47.856;10.956;2024-01-10T04:21:02;-7.81;99.99
80779;SHT30;70170;47.856;10.956;2024-01-10T04:23:27;-7.86;99.99
80779;SHT30;70170;47.856;10.956;2024-01-10T04:25:53;-7.80;99.99
80779;SHT30;70170;47.856;10.956;2024-01-10T04:28:19;-7.83;99.99
80779;SHT30;70170;47.856;10.956;2024-01-10T04:30:44;-7.77;99.99
80779;SHT30;70170;47.856;10.956;2024-01-10T04:33:09;-7.73;99.99
80779;SHT30;70170;47.856;10.956;2024-01-10T04:35:35;-7.63;99.99
80779;SHT30;70170;47.856;10.956;2024-01-10T04:38:00;-7.67;99.99
80779;SHT30;70170;47.856;10.956;2024-01-10T04:40:25;-7.66;99.99
80779;SHT30;70170;47.856;10.956;2024-01-10T04:42:51;-7.59;99.99
80779;SHT30;70170;47.856;10.956;2024-01-10T04:45:16;-7.57;99.99
80779;SHT30;70170;47.856;10.956;2024-01-10T04:47:41;-7.63;99.99
80779;SHT30;70170;47.856;10.956;2024-01-10T04:50:07;-7.80;99.99
80779;SHT30;70170;47.856;10.956;2024-01-10T04:52:33;-7.76;99.99
80779;SHT30;70170;47.856;10.956;2024-01-10T04:54:58;-7.73;99.99
80779;SHT30;70170;47.856;10.956;2024-01-10T04:57:23;-7.67;99.99
80779;SHT30;70170;47.856;10.956;2024-01-10T04:59:49;-7.70;99.99
80779;SHT30;70170;47.856;10.956;2024-01-10T05:02:14;-7.69;99.99
80779;SHT30;70170;47.856;10.956;2024-01-10T05:04:40;-7.64;99.99
80779;SHT30;70170;47.856;10.956;2024-01-10T05:07:05;-7.69;99.99
80779;SHT30;70170;47.856;10.956;2024-01-10T05:09:30;-7.67;99.99
80779;SHT30;70170;47.856;10.956;2024-01-10T05:11:56;-7.62;99.99
80779;SHT30;70170;47.856;10.956;2024-01-10T05:14:21;-7.66;99.99
80779;SHT30;70170;47.856;10.956;2024-01-10T05:16:47;-7.64;99.99
80779;SHT30;70170;47.856;10.956;2024-01-10T05:19:15;-7.57;99.99
80779;SHT30;70170;47.856;10.956;2024-01-10T05:21:40;-7.56;99.99
80779;SHT30;70170;47.856;10.956;2024-01-10T05:24:06;-7.47;99.99
80779;SHT30;70170;47.856;10.956;2024-01-10T05:26:31;-7.49;99.99
80779;SHT30;70170;47.856;10.956;2024-01-10T05:28:57;-7.38;99.99
80779;SHT30;70170;47.856;10.956;2024-01-10T05:31:22;-7.34;99.99
80779;SHT30;70170;47.856;10.956;2024-01-10T05:33:47;-7.31;99.99
80779;SHT30;70170;47.856;10.956;2024-01-10T05:36:13;-7.28;99.99
80779;SHT30;70170;47.856;10.956;2024-01-10T05:38:38;-7.43;99.99
80779;SHT30;70170;47.856;10.956;2024-01-10T05:41:05;-7.42;99.99
80779;SHT30;70170;47.856;10.956;2024-01-10T05:43:30;-7.38;99.99
80779;SHT30;70170;47.856;10.956;2024-01-10T05:45:56;-7.35;99.99
80779;SHT30;70170;47.856;10.956;2024-01-10T05:48:22;-7.34;99.99
80779;SHT30;70170;47.856;10.956;2024-01-10T05:50:47;-7.32;99.99
80779;SHT30;70170;47.856;10.956;2024-01-10T05:53:12;-7.34;99.99
80779;SHT30;70170;47.856;10.956;2024-01-10T05:55:42;-7.32;99.99
80779;SHT30;70170;47.856;10.956;2024-01-10T05:58:07;-7.31;99.99
80779;SHT30;70170;47.856;10.956;2024-01-10T06:00:34;-7.38;99.99
80779;SHT30;70170;47.856;10.956;2024-01-10T06:03:00;-7.39;99.99
80779;SHT30;70170;47.856;10.956;2024-01-10T06:05:25;-7.45;99.99
80779;SHT30;70170;47.856;10.956;2024-01-10T06:07:50;-7.45;99.99
80779;SHT30;70170;47.856;10.956;2024-01-10T06:10:16;-7.43;99.99
80779;SHT30;70170;47.856;10.956;2024-01-10T06:12:42;-7.50;99.99
80779;SHT30;70170;47.856;10.956;2024-01-10T06:15:07;-7.63;99.99
80779;SHT30;70170;47.856;10.956;2024-01-10T06:17:33;-7.77;99.99
80779;SHT30;70170;47.856;10.956;2024-01-10T06:19:58;-7.87;99.99
80779;SHT30;70170;47.856;10.956;2024-01-10T06:22:28;-7.87;99.99
80779;SHT30;70170;47.856;10.956;2024-01-10T06:24:53;-7.97;99.99
80779;SHT30;70170;47.856;10.956;2024-01-10T06:27:19;-7.98;99.99
80779;SHT30;70170;47.856;10.956;2024-01-10T06:29:44;-8.04;99.99
80779;SHT30;70170;47.856;10.956;2024-01-10T06:32:12;-8.17;99.99
80779;SHT30;70170;47.856;10.956;2024-01-10T06:34:39;-8.36;99.99
80779;SHT30;70170;47.856;10.956;2024-01-10T06:37:05;-8.45;99.99
80779;SHT30;70170;47.856;10.956;2024-01-10T06:39:32;-8.52;99.99
80779;SHT30;70170;47.856;10.956;2024-01-10T06:41:57;-8.58;99.99
80779;SHT30;70170;47.856;10.956;2024-01-10T06:44:23;-8.57;99.99
80779;SHT30;70170;47.856;10.956;2024-01-10T06:46:48;-8.60;99.99
80779;SHT30;70170;47.856;10.956;2024-01-10T06:49:14;-8.68;99.99
80779;SHT30;70170;47.856;10.956;2024-01-10T06:51:39;-8.63;99.99
80779;SHT30;70170;47.856;10.956;2024-01-10T06:54:04;-8.71;99.99
80779;SHT30;70170;47.856;10.956;2024-01-10T06:56:31;-8.74;99.99
80779;SHT30;70170;47.856;10.956;2024-01-10T06:58:57;-8.61;99.99
80779;SHT30;70170;47.856;10.956;2024-01-10T07:01:22;-8.47;99.99
80779;SHT30;70170;47.856;10.956;2024-01-10T07:03:47;-8.60;99.99
80779;SHT30;70170;47.856;10.956;2024-01-10T07:06:13;-8.71;99.99
80779;SHT30;70170;47.856;10.956;2024-01-10T07:08:40;-8.46;99.99
80779;SHT30;70170;47.856;10.956;2024-01-10T07:11:05;-8.38;99.99
80779;SHT30;70170;47.856;10.956;2024-01-10T07:13:30;-8.42;99.99
80779;SHT30;70170;47.856;10.956;2024-01-10T07:15:57;-8.36;99.99
80779;SHT30;70170;47.856;10.956;2024-01-10T07:18:22;-8.32;99.99
80779;SHT30;70170;47.856;10.956;2024-01-10T07:20:47;-7.84;99.99
80779;SHT30;70170;47.856;10.956;2024-01-10T07:23:13;-7.77;99.99
80779;SHT30;70170;47.856;10.956;2024-01-10T07:25:38;-7.77;99.99
80779;SHT30;70170;47.856;10.956;2024-01-10T07:28:03;-7.59;99.99
80779;SHT30;70170;47.856;10.956;2024-01-10T07:30:29;-7.35;99.99
80779;SHT30;70170;47.856;10.956;2024-01-10T07:32:58;-7.21;99.99
80779;SHT30;70170;47.856;10.956;2024-01-10T07:35:23;-7.09;99.99
80779;SHT30;70170;47.856;10.956;2024-01-10T07:37:48;-6.96;99.99
80779;SHT30;70170;47.856;10.956;2024-01-10T07:40:14;-7.01;99.99
80779;SHT30;70170;47.856;10.956;2024-01-10T07:42:39;-7.03;99.99
80779;SHT30;70170;47.856;10.956;2024-01-10T07:45:05;-7.03;99.99
80779;SHT30;70170;47.856;10.956;2024-01-10T07:47:31;-6.79;99.99
80779;SHT30;70170;47.856;10.956;2024-01-10T07:49:57;-6.53;99.99
80779;SHT30;70170;47.856;10.956;2024-01-10T07:52:22;-6.39;99.99
80779;SHT30;70170;47.856;10.956;2024-01-10T07:54:47;-6.32;99.99
80779;SHT30;70170;47.856;10.956;2024-01-10T07:57:13;-6.34;99.99
80779;SHT30;70170;47.856;10.956;2024-01-10T07:59:38;-6.11;99.99
80779;SHT30;70170;47.856;10.956;2024-01-10T08:02:04;-5.87;99.99
80779;SHT30;70170;47.856;10.956;2024-01-10T08:04:29;-5.94;99.99
80779;SHT30;70170;47.856;10.956;2024-01-10T08:06:54;-5.83;99.99
80779;SHT30;70170;47.856;10.956;2024-01-10T08:09:21;-5.77;99.99
80779;SHT30;70170;47.856;10.956;2024-01-10T08:11:48;-5.63;99.99
80779;SHT30;70170;47.856;10.956;2024-01-10T08:14:14;-5.62;99.99
80779;SHT30;70170;47.856;10.956;2024-01-10T08:16:40;-5.63;98.85
80779;SHT30;70170;47.856;10.956;2024-01-10T08:19:06;-5.42;99.70
80779;SHT30;70170;47.856;10.956;2024-01-10T08:21:31;-5.24;98.84
80779;SHT30;70170;47.856;10.956;2024-01-10T08:23:56;-5.34;98.16
80779;SHT30;70170;47.856;10.956;2024-01-10T08:26:22;-5.18;99.52
80779;SHT30;70170;47.856;10.956;2024-01-10T08:28:48;-5.04;97.66
80779;SHT30;70170;47.856;10.956;2024-01-10T08:31:16;-5.04;97.47
80779;SHT30;70170;47.856;10.956;2024-01-10T08:33:41;-4.96;97.38
80779;SHT30;70170;47.856;10.956;2024-01-10T08:36:07;-4.94;97.22
80779;SHT30;70170;47.856;10.956;2024-01-10T08:38:34;-4.89;96.89
80779;SHT30;70170;47.856;10.956;2024-01-10T08:41:00;-4.48;96.67
80779;SHT30;70170;47.856;10.956;2024-01-10T08:43:26;-4.31;96.10
80779;SHT30;70170;47.856;10.956;2024-01-10T08:45:51;-4.42;95.43
80779;SHT30;70170;47.856;10.956;2024-01-10T08:48:16;-4.62;95.73
80779;SHT30;70170;47.856;10.956;2024-01-10T08:50:42;-4.42;96.57
80779;SHT30;70170;47.856;10.956;2024-01-10T08:53:10;-3.87;96.74
80779;SHT30;70170;47.856;10.956;2024-01-10T08:55:35;-3.38;96.58
80779;SHT30;70170;47.856;10.956;2024-01-10T08:58:02;-3.17;94.19
80779;SHT30;70170;47.856;10.956;2024-01-10T09:00:28;-3.48;93.42
80779;SHT30;70170;47.856;10.956;2024-01-10T09:02:54;-3.44;93.85
80779;SHT30;70170;47.856;10.956;2024-01-10T09:05:20;-3.11;94.88
80779;SHT30;70170;47.856;10.956;2024-01-10T09:07:47;-2.82;94.25
80779;SHT30;70170;47.856;10.956;2024-01-10T09:10:12;-2.79;93.27
80779;SHT30;70170;47.856;10.956;2024-01-10T09:12:38;-2.55;94.06
80779;SHT30;70170;47.856;10.956;2024-01-10T09:15:03;-2.62;93.71
80779;SHT30;70170;47.856;10.956;2024-01-10T09:17:29;-2.55;93.90
80779;SHT30;70170;47.856;10.956;2024-01-10T09:19:54;-3.17;93.00
80779;SHT30;70170;47.856;10.956;2024-01-10T09:22:19;-3.10;94.48
80779;SHT30;70170;47.856;10.956;2024-01-10T09:24:45;-2.82;95.66
80779;SHT30;70170;47.856;10.956;2024-01-10T09:27:10;-2.93;95.14
80779;SHT30;70170;47.856;10.956;2024-01-10T09:29:36;-2.88;96.11
80779;SHT30;70170;47.856;10.956;2024-01-10T09:32:01;-2.58;95.50
80779;SHT30;70170;47.856;10.956;2024-01-10T09:34:26;-2.36;95.86
80779;SHT30;70170;47.856;10.956;2024-01-10T09:36:51;-2.20;94.79
80779;SHT30;70170;47.856;10.956;2024-01-10T09:39:18;-1.83;95.84
80779;SHT30;70170;47.856;10.956;2024-01-10T09:41:47;-1.60;95.46
80779;SHT30;70170;47.856;10.956;2024-01-10T09:44:17;-1.40;95.23
80779;SHT30;70170;47.856;10.956;2024-01-10T09:46:46;-1.19;95.28
80779;SHT30;70170;47.856;10.956;2024-01-10T09:49:13;-1.12;95.22
80779;SHT30;70170;47.856;10.956;2024-01-10T09:51:38;-1.27;93.38
80779;SHT30;70170;47.856;10.956;2024-01-10T09:54:04;-1.32;94.23
80779;SHT30;70170;47.856;10.956;2024-01-10T09:56:30;-1.46;94.98
80779;SHT30;70170;47.856;10.956;2024-01-10T09:58:58;-1.47;95.49
80779;SHT30;70170;47.856;10.956;2024-01-10T10:01:24;-1.43;95.14
80779;SHT30;70170;47.856;10.956;2024-01-10T10:03:50;-1.67;95.21
80779;SHT30;70170;47.856;10.956;2024-01-10T10:06:16;-1.77;95.68
80779;SHT30;70170;47.856;10.956;2024-01-10T10:08:41;-1.77;96.02
80779;SHT30;70170;47.856;10.956;2024-01-10T10:11:11;-1.78;96.26
80779;SHT30;70170;47.856;10.956;2024-01-10T10:13:37;-1.95;95.77
80779;SHT30;70170;47.856;10.956;2024-01-10T10:16:07;-2.17;95.89
80779;SHT30;70170;47.856;10.956;2024-01-10T10:18:34;-2.26;96.55
80779;SHT30;70170;47.856;10.956;2024-01-10T10:21:13;-2.30;96.84
80779;SHT30;70170;47.856;10.956;2024-01-10T10:24:00;-2.30;96.50
80779;SHT30;70170;47.856;10.956;2024-01-10T10:26:26;-2.22;96.36
80779;SHT30;70170;47.856;10.956;2024-01-10T10:28:52;-2.14;96.43
80779;SHT30;70170;47.856;10.956;2024-01-10T10:31:18;-1.99;96.40
80779;SHT30;70170;47.856;10.956;2024-01-10T10:33:45;-2.00;96.22
80779;SHT30;70170;47.856;10.956;2024-01-10T10:36:10;-1.85;95.87
80779;SHT30;70170;47.856;10.956;2024-01-10T10:38:36;-1.85;94.78
80779;SHT30;70170;47.856;10.956;2024-01-10T10:41:04;-1.78;94.98
80779;SHT30;70170;47.856;10.956;2024-01-10T10:43:33;-1.36;94.80
80779;SHT30;70170;47.856;10.956;2024-01-10T10:46:00;-1.19;94.25
80779;SHT30;70170;47.856;10.956;2024-01-10T10:48:28;-1.16;94.55
80779;SHT30;70170;47.856;10.956;2024-01-10T10:51:03;-1.27;93.92
80779;SHT30;70170;47.856;10.956;2024-01-10T10:53:33;-1.16;93.86
80779;SHT30;70170;47.856;10.956;2024-01-10T10:55:59;-1.47;94.47
80779;SHT30;70170;47.856;10.956;2024-01-10T10:58:25;-1.39;94.70
80779;SHT30;70170;47.856;10.956;2024-01-10T11:00:51;-1.27;94.41
80779;SHT30;70170;47.856;10.956;2024-01-10T11:03:17;-1.43;94.16
80779;SHT30;70170;47.856;10.956;2024-01-10T11:05:42;-1.33;93.95
80779;SHT30;70170;47.856;10.956;2024-01-10T11:08:11;-1.16;94.14
80779;SHT30;70170;47.856;10.956;2024-01-10T11:10:39;-1.48;93.38
80779;SHT30;70170;47.856;10.956;2024-01-10T11:24:26;-1.62;93.80
80779;SHT30;70170;47.856;10.956;2024-01-10T11:27:15;-1.52;93.84
80779;SHT30;70170;47.856;10.956;2024-01-10T11:29:41;-1.68;93.78
80779;SHT30;70170;47.856;10.956;2024-01-10T11:32:14;-1.57;94.53
80779;SHT30;70170;47.856;10.956;2024-01-10T11:34:58;-1.64;93.68
80779;SHT30;70170;47.856;10.956;2024-01-10T11:37:28;-1.27;93.53
80779;SHT30;70170;47.856;10.956;2024-01-10T11:39:54;-1.39;92.89
80779;SHT30;70170;47.856;10.956;2024-01-10T11:42:43;-1.39;93.05
80779;SHT30;70170;47.856;10.956;2024-01-10T11:45:08;-1.44;92.74
80779;SHT30;70170;47.856;10.956;2024-01-10T11:47:36;-1.30;92.66
80779;SHT30;70170;47.856;10.956;2024-01-10T11:50:03;-1.54;92.95
80779;SHT30;70170;47.856;10.956;2024-01-10T11:52:32;-1.75;93.40
80779;SHT30;70170;47.856;10.956;2024-01-10T11:54:58;-1.96;93.83
80779;SHT30;70170;47.856;10.956;2024-01-10T11:57:28;-1.77;93.81
80779;SHT30;70170;47.856;10.956;2024-01-10T11:59:55;-1.71;93.39
80779;SHT30;70170;47.856;10.956;2024-01-10T12:02:22;-1.72;93.14
80779;SHT30;70170;47.856;10.956;2024-01-10T12:04:48;-1.83;93.26
80779;SHT30;70170;47.856;10.956;2024-01-10T12:07:15;-1.70;93.19
80779;SHT30;70170;47.856;10.956;2024-01-10T12:09:41;-1.61;92.15
80779;SHT30;70170;47.856;10.956;2024-01-10T12:12:09;-1.50;92.09
80779;SHT30;70170;47.856;10.956;2024-01-10T12:14:36;-1.54;92.13
80779;SHT30;70170;47.856;10.956;2024-01-10T12:17:02;-1.32;92.11
80779;SHT30;70170;47.856;10.956;2024-01-10T12:19:29;-1.09;91.42
80779;SHT30;70170;47.856;10.956;2024-01-10T12:21:54;-1.21;90.92
80779;SHT30;70170;47.856;10.956;2024-01-10T12:24:20;-1.09;91.23
80779;SHT30;70170;47.856;10.956;2024-01-10T12:26:47;-1.09;90.99
80779;SHT30;70170;47.856;10.956;2024-01-10T12:29:12;-1.16;91.02
80779;SHT30;70170;47.856;10.956;2024-01-10T12:31:38;-1.13;90.74
80779;SHT30;70170;47.856;10.956;2024-01-10T12:34:09;-1.21;90.73
80779;SHT30;70170;47.856;10.956;2024-01-10T12:36:35;-1.40;90.96
80779;SHT30;70170;47.856;10.956;2024-01-10T12:39:01;-1.47;91.63
80779;SHT30;70170;47.856;10.956;2024-01-10T12:41:26;-1.33;91.88
80779;SHT30;70170;47.856;10.956;2024-01-10T12:43:55;-1.16;90.88
80779;SHT30;70170;47.856;10.956;2024-01-10T12:46:21;-1.09;90.53
80779;SHT30;70170;47.856;10.956;2024-01-10T12:49:04;-1.33;91.40
80779;SHT30;70170;47.856;10.956;2024-01-10T12:51:31;-1.26;91.28
80779;SHT30;70170;47.856;10.956;2024-01-10T12:54:00;-1.09;90.76
80779;SHT30;70170;47.856;10.956;2024-01-10T12:56:26;-1.32;90.85
80779;SHT30;70170;47.856;10.956;2024-01-10T12:58:52;-1.33;90.90
80779;SHT30;70170;47.856;10.956;2024-01-10T13:01:18;-1.51;91.77
80779;SHT30;70170;47.856;10.956;2024-01-10T13:03:44;-1.37;91.09
80779;SHT30;70170;47.856;10.956;2024-01-10T13:06:09;-1.40;90.21
80779;SHT30;70170;47.856;10.956;2024-01-10T13:08:35;-1.52;91.24
80779;SHT30;70170;47.856;10.956;2024-01-10T13:11:00;-1.75;91.56
80779;SHT30;70170;47.856;10.956;2024-01-10T13:13:26;-1.83;92.10
80779;SHT30;70170;47.856;10.956;2024-01-10T13:15:51;-1.78;92.12
80779;SHT30;70170;47.856;10.956;2024-01-10T13:18:17;-1.47;90.87
80779;SHT30;70170;47.856;10.956;2024-01-10T13:20:43;-1.68;90.40
80779;SHT30;70170;47.856;10.956;2024-01-10T13:23:09;-1.17;89.83
80779;SHT30;70170;47.856;10.956;2024-01-10T13:25:35;-0.51;88.09
80779;SHT30;70170;47.856;10.956;2024-01-10T13:28:00;-0.34;87.57
80779;SHT30;70170;47.856;10.956;2024-01-10T13:30:26;0.25;86.12
80779;SHT30;70170;47.856;10.956;2024-01-10T13:32:52;0.43;85.50
80779;SHT30;70170;47.856;10.956;2024-01-10T13:35:17;0.57;84.37
80779;SHT30;70170;47.856;10.956;2024-01-10T13:37:42;0.25;86.07
80779;SHT30;70170;47.856;10.956;2024-01-10T13:40:09;0.05;86.12
80779;SHT30;70170;47.856;10.956;2024-01-10T13:42:38;0.50;85.37
80779;SHT30;70170;47.856;10.956;2024-01-10T13:45:05;0.32;86.40
80779;SHT30;70170;47.856;10.956;2024-01-10T13:47:31;0.21;86.94
80779;SHT30;70170;47.856;10.956;2024-01-10T13:49:57;-0.13;87.17
80779;SHT30;70170;47.856;10.956;2024-01-10T13:52:23;-0.38;89.06
80779;SHT30;70170;47.856;10.956;2024-01-10T13:54:48;-0.56;88.25
80779;SHT30;70170;47.856;10.956;2024-01-10T13:57:13;-0.07;89.74
80779;SHT30;70170;47.856;10.956;2024-01-10T13:59:39;-0.41;89.64
80779;SHT30;70170;47.856;10.956;2024-01-10T14:02:04;-0.17;90.13
80779;SHT30;70170;47.856;10.956;2024-01-10T14:04:29;-0.68;89.88
80779;SHT30;70170;47.856;10.956;2024-01-10T14:06:55;-0.88;92.72
80779;SHT30;70170;47.856;10.956;2024-01-10T14:09:20;-0.95;93.90
80779;SHT30;70170;47.856;10.956;2024-01-10T14:11:45;-1.27;93.89
80779;SHT30;70170;47.856;10.956;2024-01-10T14:14:11;-1.90;96.57
80779;SHT30;70170;47.856;10.956;2024-01-10T14:16:36;-2.24;98.28
80779;SHT30;70170;47.856;10.956;2024-01-10T14:19:02;-1.95;98.28
80779;SHT30;70170;47.856;10.956;2024-01-10T14:21:27;-1.95;98.09
80779;SHT30;70170;47.856;10.956;2024-01-10T14:23:53;-2.16;98.41
80779;SHT30;70170;47.856;10.956;2024-01-10T14:26:18;-2.36;99.99
80779;SHT30;70170;47.856;10.956;2024-01-10T14:28:43;-2.55;99.99
80779;SHT30;70170;47.856;10.956;2024-01-10T14:31:09;-2.50;99.99
80779;SHT30;70170;47.856;10.956;2024-01-10T14:33:38;-2.71;99.99
80779;SHT30;70170;47.856;10.956;2024-01-10T14:36:04;-2.61;99.99
80779;SHT30;70170;47.856;10.956;2024-01-10T14:38:29;-2.50;99.99
80779;SHT30;70170;47.856;10.956;2024-01-10T14:40:55;-2.37;99.99
80779;SHT30;70170;47.856;10.956;2024-01-10T14:43:20;-2.16;98.57
80779;SHT30;70170;47.856;10.956;2024-01-10T14:45:45;-2.27;99.39
80779;SHT30;70170;47.856;10.956;2024-01-10T14:48:10;-2.50;99.99
80779;SHT30;70170;47.856;10.956;2024-01-10T14:50:36;-2.72;99.99
80779;SHT30;70170;47.856;10.956;2024-01-10T14:53:02;-2.97;99.99
80779;SHT30;70170;47.856;10.956;2024-01-10T14:55:27;-3.19;99.99
80779;SHT30;70170;47.856;10.956;2024-01-10T14:57:54;-3.33;99.99
80779;SHT30;70170;47.856;10.956;2024-01-10T15:00:19;-3.28;99.99
80779;SHT30;70170;47.856;10.956;2024-01-10T15:02:44;-3.27;99.99
80779;SHT30;70170;47.856;10.956;2024-01-10T15:05:11;-3.33;99.99
80779;SHT30;70170;47.856;10.956;2024-01-10T15:07:36;-3.38;99.99
80779;SHT30;70170;47.856;10.956;2024-01-10T15:10:02;-3.50;99.99
80779;SHT30;70170;47.856;10.956;2024-01-10T15:12:30;-3.62;99.99
80779;SHT30;70170;47.856;10.956;2024-01-10T15:14:55;-3.85;99.99
80779;SHT30;70170;47.856;10.956;2024-01-10T15:17:25;-3.92;99.99
80779;SHT30;70170;47.856;10.956;2024-01-10T15:19:50;-4.04;99.99
80779;SHT30;70170;47.856;10.956;2024-01-10T15:22:15;-4.02;99.99